Latest Weather Observations for Paraburdoo

IDW60801

Issued at 9:04 pm WST Saturday 23 January 2021 (issued every 10 minutes, with the page automatically refreshed every 10 minutes)

About weather observations | Map of weather stations | Latest weather observations for WA | Other Formats
Station Details ID: 007185 Name: PARABURDOO AERO Lat: -23.17 Lon: 117.75 Height: 423.7 m
Data from the previous 72 hours. | See also: Recent months at Paraburdoo
Date/Time
WST
Temp
°C
App
Temp
°C
Dew
Point
°C
Rel
Hum
%
Delta-T
°C
Wind Press
QNH
hPa
Press
MSL
hPa
Rain since
9am
mm
Dir  Spd
km/h
Gust
km/h
Spd
kts
Gust
kts
23/09:00pm 33.9 29.8 7.8 20 14.8 SW 19 26 10 14 1005.7 1001.9 0.0
23/08:30pm 34.2 30.0 7.3 19 15.1 SW 19 24 10 13 1005.5 1001.7 0.0
23/08:00pm 34.5 30.9 6.7 18 15.6 WSW 15 22 8 12 1005.3 1001.5 0.0
23/07:30pm 35.0 30.4 6.3 17 16.0 SW 20 30 11 16 1005.0 1001.2 0.0
23/07:00pm 35.7 29.8 6.0 16 16.5 WSW 26 32 14 17 1004.7 1000.9 0.0
23/06:30pm 36.5 30.4 4.7 14 17.4 WSW 26 33 14 18 1004.4 1000.6 0.0
23/06:00pm 37.7 30.4 4.6 13 18.2 WSW 32 43 17 23 1003.9 1000.0 0.0
23/05:30pm 37.8 31.7 4.7 13 18.2 WSW 26 41 14 22 1003.5 999.7 0.0
23/05:10pm 38.1 31.4 3.8 12 18.6 WSW 28 50 15 27 1003.3 999.5 0.0
23/05:00pm 37.9 30.4 3.6 12 18.6 WSW 32 44 17 24 1003.2 999.4 0.0
23/04:30pm 38.5 30.9 4.1 12 18.8 WSW 33 48 18 26 1003.0 999.2 0.0
23/04:00pm 38.8 31.5 4.3 12 19.0 WSW 32 43 17 23 1002.9 999.1 0.0
23/03:48pm 38.9 31.7 3.1 11 19.3 SW 30 48 16 26 1003.0 999.2 0.0
23/03:30pm 38.3 30.7 2.7 11 19.0 SW 32 46 17 25 1003.1 999.3 0.0
23/03:00pm 38.3 31.0 2.7 11 19.1 WSW 30 43 16 23 1003.2 999.4 0.0
23/02:38pm 38.5 30.9 2.8 11 19.1 WSW 32 50 17 27 1003.0 999.2 0.0
23/02:30pm 39.5 32.2 2.2 10 19.9 WSW 30 50 16 27 1003.1 999.3 0.0
23/02:02pm 39.0 32.7 5.6 13 18.7 WSW 28 50 15 27 1003.1 999.3 0.0
23/02:00pm 38.7 32.5 4.2 12 19.0 WSW 26 41 14 22 1003.2 999.4 0.0
23/01:46pm 38.9 32.6 5.5 13 18.7 W 28 48 15 26 1003.3 999.5 0.0
23/01:30pm 37.9 32.6 6.8 15 17.7 WSW 24 43 13 23 1003.4 999.6 0.0
23/01:00pm 37.3 32.3 8.2 17 16.9 SW 24 35 13 19 1003.7 999.8 0.0
23/12:30pm 36.6 31.9 9.2 19 16.0 WSW 24 43 13 23 1004.1 1000.3 0.0
23/12:00pm 36.0 32.9 10.2 21 15.3 SW 17 26 9 14 1004.3 1000.5 0.0
23/11:30am 34.3 30.8 10.8 24 14.0 WSW 20 30 11 16 1004.6 1000.8 0.0
23/11:00am 35.7 33.3 12.6 25 14.2 WSW 17 28 9 15 1004.8 1001.0 0.0
23/10:30am 33.8 32.8 13.3 29 12.6 WNW 11 19 6 10 1004.9 1001.1 0.0
23/10:00am 32.9 31.8 13.0 30 12.2 W 11 19 6 10 1005.2 1001.4 0.0
23/09:30am 31.8 31.4 13.1 32 11.4 NNW 7 11 4 6 1005.3 1001.5 0.0
23/09:00am 31.8 32.1 14.9 36 10.6 W 7 13 4 7 1005.2 1001.4 0.0
23/08:30am 29.7 30.5 14.7 40 9.3 SW 4 7 2 4 1005.3 1001.5 0.0
23/08:00am 29.4 29.7 15.1 41 8.9 ENE 7 11 4 6 1005.1 1001.3 0.0
23/07:30am 28.3 27.9 15.2 44 8.1 ENE 11 17 6 9 1005.1 1001.3 0.0
23/07:00am 27.9 26.0 15.2 46 7.9 E 19 22 10 12 1004.8 1001.0 0.0
23/06:30am 27.1 25.7 15.5 49 7.2 ESE 17 26 9 14 1004.3 1000.5 0.0
23/06:00am 26.7 25.5 15.1 49 7.2 E 15 20 8 11 1004.0 1000.1 0.0
23/05:30am 25.9 26.2 15.0 51 6.7 ENE 7 9 4 5 1003.7 999.8 0.0
23/05:00am 26.2 26.1 15.0 50 6.9 ENE 9 11 5 6 1003.2 999.4 0.0
23/04:30am 26.8 26.2 14.5 46 7.5 E 11 15 6 8 1003.1 999.3 0.0
23/04:00am 26.8 26.7 14.9 48 7.3 ESE 9 9 5 5 1003.1 999.3 0.0
23/03:30am 27.0 27.2 14.7 47 7.5 E 7 11 4 6 1003.1 999.3 0.0
23/03:00am 26.8 27.1 14.9 48 7.3 E 7 9 4 5 1003.1 999.3 0.0
23/02:30am 27.6 27.0 14.6 45 8.0 E 11 13 6 7 1003.0 999.2 0.0
23/02:00am 27.7 27.0 14.3 43 8.2 ENE 11 13 6 7 1002.9 999.1 0.0
23/01:30am 28.0 27.3 14.3 43 8.4 NE 11 13 6 7 1003.2 999.4 0.0
23/01:00am 28.6 27.4 14.1 41 8.9 ENE 13 17 7 9 1003.4 999.6 0.0
23/12:30am 29.1 27.4 13.7 38 9.4 ENE 15 19 8 10 1004.1 1000.3 0.0
23/12:00am 29.7 27.7 13.9 38 9.7 NE 17 22 9 12 1004.4 1000.6 0.0
 
Date/Time
WST
Temp
°C
App
Temp
°C
Dew
Point
°C
Rel
Hum
%
Delta-T
°C
Wind Press
QNH
hPa
Press
MSL
hPa
Rain since
9am
mm
Dir  Spd
km/h
Gust
km/h
Spd
kts
Gust
kts
22/11:30pm 30.3 28.5 14.4 38 9.8 NE 17 22 9 12 1004.5 1000.7 0.0
22/11:00pm 30.5 28.8 15.8 41 9.3 ENE 19 24 10 13 1004.9 1001.1 0.0
22/10:30pm 31.3 29.2 16.1 40 9.7 ENE 22 32 12 17 1004.9 1001.1 0.0
22/10:00pm 31.7 29.7 15.6 37 10.2 NE 20 26 11 14 1004.8 1001.0 0.0
22/09:30pm 32.1 30.0 14.7 35 10.9 ENE 19 28 10 15 1004.4 1000.6 0.0
22/09:00pm 32.7 31.2 14.3 32 11.5 ENE 15 20 8 11 1004.1 1000.3 0.0
22/08:30pm 33.1 29.0 13.7 31 12.0 E 28 43 15 23 1003.5 999.7 0.0
22/08:29pm 33.2 29.1 13.8 31 12.0 E 28 43 15 23 1003.4 999.6 0.0
22/08:00pm 34.6 32.4 13.4 28 13.1 E 17 22 9 12 1002.7 998.9 0.0
22/07:30pm 34.4 32.0 14.3 30 12.6 E 20 28 11 15 1002.3 998.5 0.0
22/07:00pm 33.4 31.5 15.8 34 11.2 E 20 26 11 14 1002.2 998.4 0.0
22/06:43pm 35.3 32.2 13.5 27 13.5 SE 22 41 12 22 1002.5 998.7 0.0
22/06:30pm 35.8 34.7 14.4 27 13.5 SE 13 17 7 9 1002.1 998.3 0.0
22/06:00pm 35.8 33.2 13.9 27 13.7 ENE 20 28 11 15 1001.7 997.8 0.0
22/05:30pm 36.2 33.8 15.3 28 13.3 ENE 22 28 12 15 1001.7 997.8 0.0
22/05:00pm 35.4 31.8 15.2 30 12.9 NE 28 33 15 18 1001.5 997.6 0.0
22/04:30pm 33.5 30.8 15.5 34 11.4 E 24 43 13 23 1001.9 998.1 0.0
22/04:27pm 34.2 32.1 14.7 31 12.3 ESE 19 43 10 23 1002.0 998.2 0.0
22/04:00pm 39.4 35.2 12.3 20 16.8 SW 26 35 14 19 1001.5 997.6 0.0
22/03:30pm 38.3 37.8 12.1 21 16.1 ENE 6 13 3 7 1001.9 998.1 0.0
22/03:00pm 38.2 37.9 13.4 23 15.6 WSW 7 13 4 7 1002.5 998.7 0.0
22/02:30pm 38.1 36.1 12.7 22 15.7 WSW 15 26 8 14 1002.9 999.1 0.0
22/02:00pm 37.9 36.6 13.8 23 15.2 SW 13 24 7 13 1003.4 999.6 0.0
22/01:30pm 37.3 37.0 13.3 23 14.9 ESE 7 13 4 7 1004.1 1000.3 0.0
22/01:00pm 37.0 37.0 14.3 26 14.4 ENE 7 13 4 7 1004.6 1000.8 0.0
22/12:30pm 35.8 35.1 14.4 27 13.5 N 11 19 6 10 1005.4 1001.6 0.0
22/12:00pm 35.4 33.9 14.1 28 13.4 WNW 15 22 8 12 1005.6 1001.8 0.0
22/11:30am 35.9 34.9 14.5 27 13.5 N 13 22 7 12 1006.0 1002.2 0.0
22/11:00am 34.7 33.7 14.6 30 12.7 N 13 20 7 11 1006.8 1003.0 0.0
22/10:30am 33.8 32.9 14.8 32 11.9 NNW 13 19 7 10 1007.1 1003.3 0.0
22/10:00am 33.4 31.9 15.4 34 11.4 NW 17 24 9 13 1007.2 1003.4 0.0
22/09:30am 32.5 31.1 14.6 34 11.2 NNW 15 22 8 12 1007.7 1003.9 0.0
22/09:00am 32.0 31.1 15.9 38 10.2 WNW 15 20 8 11 1007.8 1004.0 0.4
22/08:30am 31.3 30.7 15.7 39 9.8 NW 13 17 7 9 1007.9 1004.1 0.4
22/08:00am 30.5 31.1 16.9 44 8.7 NW 9 15 5 8 1007.8 1004.0 0.4
22/07:30am 29.8 30.6 17.3 47 8.0 WNW 9 11 5 6 1007.8 1004.0 0.4
22/07:00am 29.1 31.6 17.3 49 7.6 CALM 0 0 0 0 1007.5 1003.7 0.4
22/06:30am 28.0 29.7 18.1 55 6.4 N 6 7 3 4 1007.5 1003.7 0.4
22/06:00am 27.1 30.2 18.7 60 5.5 CALM 0 0 0 0 1007.3 1003.5 0.4
22/05:30am 27.5 28.9 17.9 55 6.2 N 7 7 4 4 1007.1 1003.3 0.4
22/05:00am 28.0 30.9 18.1 55 6.4 CALM 0 0 0 0 1006.7 1002.9 0.4
22/04:30am 28.5 29.6 18.0 53 6.8 W 9 15 5 8 1006.3 1002.5 0.4
22/04:00am 28.6 28.7 18.4 54 6.7 WSW 15 22 8 12 1005.9 1002.1 0.4
22/03:30am 28.5 30.2 18.6 55 6.5 SW 7 13 4 7 1006.0 1002.2 0.4
22/03:00am 28.9 30.4 18.1 52 7.0 SSW 7 9 4 5 1006.2 1002.3 0.4
22/02:30am 29.0 31.7 17.8 50 7.2 CALM 0 0 0 0 1006.2 1002.3 0.4
22/02:00am 28.7 31.5 17.9 52 7.0 CALM 0 0 0 0 1006.0 1002.2 0.4
22/01:30am 29.1 31.0 17.6 50 7.4 WSW 4 6 2 3 1006.2 1002.3 0.4
22/01:00am 30.0 30.9 16.1 43 8.8 N 6 9 3 5 1006.3 1002.5 0.4
22/12:30am 30.1 30.2 16.5 44 8.7 N 11 13 6 7 1006.5 1002.7 0.4
22/12:00am 30.0 29.7 16.4 44 8.7 NNE 13 17 7 9 1006.9 1003.1 0.4
 
Date/Time
WST
Temp
°C
App
Temp
°C
Dew
Point
°C
Rel
Hum
%
Delta-T
°C
Wind Press
QNH
hPa
Press
MSL
hPa
Rain since
9am
mm
Dir  Spd
km/h
Gust
km/h
Spd
kts
Gust
kts
21/11:30pm 30.4 31.0 16.8 44 8.7 NNE 9 13 5 7 1007.3 1003.5 0.4
21/11:00pm 30.9 30.1 16.1 41 9.4 NNW 15 22 8 12 1007.4 1003.6 0.4
21/10:30pm 31.8 30.5 14.9 36 10.6 NNW 15 19 8 10 1007.5 1003.7 0.4
21/10:00pm 32.0 28.2 14.6 34 10.9 NNW 28 39 15 21 1007.6 1003.8 0.4
21/09:39pm 33.3 32.3 13.4 30 12.2 NNW 11 37 6 20 1007.3 1003.5 0.4
21/09:30pm 33.1 33.9 12.7 29 12.4 CALM 0 2 0 1 1006.9 1003.1 0.4
21/09:00pm 34.0 32.7 11.2 25 13.6 NW 9 11 5 6 1006.0 1002.2 0.4
21/08:30pm 34.2 32.0 12.0 26 13.4 NW 15 19 8 10 1005.6 1001.8 0.4
21/08:00pm 35.2 33.2 10.3 22 14.8 WNW 11 19 6 10 1005.1 1001.3 0.4
21/07:30pm 35.1 33.3 10.9 23 14.4 SSW 11 19 6 10 1004.9 1001.1 0.2
21/07:00pm 34.7 31.1 11.8 25 13.9 SW 22 37 12 20 1004.8 1001.0 0.2
21/06:30pm 34.4 29.2 11.5 25 13.7 SSE 30 44 16 24 1005.1 1001.3 0.2
21/06:00pm 29.7 27.2 17.2 47 8.0 SSE 26 35 14 19 1005.1 1001.3 0.2
21/05:30pm 34.1 29.0 13.0 28 12.9 WSW 32 39 17 21 1004.7 1000.9 0.0
21/05:00pm 34.9 29.6 13.1 27 13.5 WSW 33 46 18 25 1004.6 1000.8 0.0
21/04:30pm 37.1 31.9 10.4 20 15.9 WNW 28 37 15 20 1004.5 1000.7 0.0
21/04:00pm 39.0 32.4 8.6 16 17.9 NW 33 43 18 23 1003.9 1000.0 0.0
21/03:50pm 39.3 35.6 7.9 15 18.2 NNW 17 41 9 22 1003.8 999.9 0.0
21/03:30pm 40.5 38.2 5.6 12 19.7 ENE 7 13 4 7 1003.8 999.9 0.0
21/03:00pm 40.6 37.9 5.7 12 19.8 S 9 17 5 9 1004.2 1000.4 0.0
21/02:30pm 41.0 37.6 6.0 12 19.9 WSW 13 22 7 12 1004.6 1000.8 0.0
21/02:00pm 41.0 36.6 4.7 11 20.3 SW 17 24 9 13 1005.1 1001.3 0.0
21/01:30pm 41.6 39.1 6.4 12 20.2 E 9 17 5 9 1005.7 1001.9 0.0
21/01:00pm 41.7 39.5 7.7 13 19.9 NNW 9 15 5 8 1006.0 1002.2 0.0
21/12:30pm 40.2 37.2 7.6 14 18.9 NNE 13 22 7 12 1006.5 1002.7 0.0
21/12:00pm 39.8 37.9 9.2 16 18.2 NNE 9 19 5 10 1007.0 1003.2 0.0
21/11:30am 38.8 37.8 11.0 19 16.8 SE 7 17 4 9 1007.4 1003.6 0.0
21/11:00am 38.5 36.9 11.5 20 16.5 E 11 24 6 13 1008.0 1004.2 0.0
21/10:30am 37.3 35.5 12.0 22 15.5 ENE 13 19 7 10 1008.4 1004.7 0.0
21/10:00am 36.1 34.8 13.6 26 14.0 E 13 19 7 10 1008.7 1004.9 0.0
21/09:30am 34.5 33.8 13.3 27 13.1 SSE 9 13 5 7 1008.9 1005.1 0.0
21/09:00am 33.3 33.5 14.8 32 11.6 E 7 13 4 7 1009.1 1005.3 0.4
21/08:30am 31.2 32.0 16.4 41 9.4 ESE 7 9 4 5 1009.2 1005.4 0.4
21/08:00am 30.1 31.5 17.9 48 7.9 E 7 11 4 6 1009.2 1005.4 0.2
21/07:30am 28.6 31.3 18.7 55 6.5 ESE 2 6 1 3 1009.3 1005.5 0.2
21/07:00am 27.8 29.9 19.3 60 5.6 E 7 9 4 5 1009.2 1005.4 0.2
21/06:30am 26.9 29.2 19.8 65 4.7 ESE 7 9 4 5 1008.9 1005.1 0.2
21/06:00am 27.0 28.7 18.6 60 5.5 NE 7 9 4 5 1008.7 1004.9 0.2
21/05:30am 27.3 30.1 18.0 56 6.0 CALM 0 6 0 3 1008.2 1004.4 0.2
21/05:00am 27.5 30.0 18.2 57 6.0 NE 2 6 1 3 1008.0 1004.2 0.2
21/04:30am 27.2 29.5 18.5 59 5.6 NE 4 7 2 4 1007.8 1004.0 0.2
21/04:00am 27.1 28.6 19.7 64 4.9 NE 11 13 6 7 1007.5 1003.7 0.2
21/03:30am 27.4 29.0 19.2 61 5.4 NNE 9 11 5 6 1007.7 1003.9 0.2
21/03:00am 27.1 28.8 19.4 62 5.1 NNE 9 13 5 7 1007.9 1004.1 0.2
21/02:30am 27.7 30.3 18.4 57 6.0 SSE 2 7 1 4 1008.2 1004.4 0.2
21/02:00am 27.6 29.1 18.0 55 6.2 SSE 7 11 4 6 1008.4 1004.7 0.2
21/01:30am 27.8 29.4 18.2 56 6.2 SSE 7 11 4 6 1008.8 1005.0 0.2
21/01:00am 28.4 29.5 17.0 50 7.3 SE 7 9 4 5 1009.1 1005.3 0.2
21/12:30am 29.2 28.9 16.4 46 8.1 SSW 13 19 7 10 1009.3 1005.5 0.2
21/12:00am 28.5 28.8 18.0 53 6.8 WSW 13 19 7 10 1009.8 1006.0 0.2
 
Date/Time
WST
Temp
°C
App
Temp
°C
Dew
Point
°C
Rel
Hum
%
Delta-T
°C
Wind Press
QNH
hPa
Press
MSL
hPa
Rain since
9am
mm
Dir  Spd
km/h
Gust
km/h
Spd
kts
Gust
kts
20/11:30pm 28.2 29.2 18.6 56 6.3 SSE 11 17 6 9 1010.3 1006.5 0.2
20/11:00pm 28.5 28.3 18.6 55 6.5 SW 17 24 9 13 1010.7 1007.0 0.2
20/10:30pm 27.3 28.7 20.4 66 4.6 S 13 17 7 9 1010.6 1006.9 0.2
20/10:00pm 26.8 28.7 21.3 72 3.7 WNW 13 19 7 10 1010.6 1006.9 0.2
20/09:30pm 27.2 27.1 20.0 64 4.8 W 20 26 11 14 1010.2 1006.4 0.0

Other formats

Comma delimited format used in spreadsheet applications
http://www.bom.gov.au/fwo/IDW60801/IDW60801.94316.axf

JavaScript Object Notation format (JSON) in row-major order
http://www.bom.gov.au/fwo/IDW60801/IDW60801.94316.json

Data quality

Most of these data are generated automatically and are frequently updated. Quality checks on data are not normally performed. It is possible for incorrect values to appear. Refer to information at About Latest Weather Observations and please check the disclaimer before using these data.